Time;durP1;ratioP1;P1;durP2;ratioP2;P2;SDS_P1;SDS_P2;PMS_P1;PMS_P2;Temp;Humidity;BMP_temperature;BMP_pressure;BME280_temperature;BME280_humidity;BME280_pressure;Samples;Min_cycle;Max_cycle;Signal;HPM_P1;HPM_P2
2023/03/17 00:00:22;;;;;;;0.60;0.57;;;11.90;99.90;;;;;;5077837;28;20123;-79
2023/03/17 00:02:49;;;;;;;1.75;0.88;;;11.90;99.90;;;;;;5077401;28;20235;-79
2023/03/17 00:05:18;;;;;;;1.42;0.80;;;11.90;99.90;;;;;;5078248;28;20134;-79
2023/03/17 00:07:45;;;;;;;1.15;0.73;;;11.90;99.90;;;;;;5059518;28;20052;-79
2023/03/17 00:10:17;;;;;;;0.63;0.60;;;11.90;99.90;;;;;;5043215;28;20545;-78
2023/03/17 00:12:44;;;;;;;1.95;0.90;;;11.90;99.90;;;;;;5042756;28;20051;-79
2023/03/17 00:15:12;;;;;;;1.83;0.82;;;11.90;99.90;;;;;;5075125;28;20513;-79
2023/03/17 00:17:40;;;;;;;1.05;0.65;;;11.90;99.90;;;;;;5041946;28;20117;-79
2023/03/17 00:20:10;;;;;;;0.90;0.68;;;11.90;99.90;;;;;;5042930;28;20090;-79
2023/03/17 00:22:38;;;;;;;1.17;0.90;;;11.90;99.90;;;;;;5053096;28;20131;-79
2023/03/17 00:25:20;;;;;;;1.40;0.75;;;11.90;99.90;;;;;;5074198;28;20162;-79
2023/03/17 00:27:48;;;;;;;1.52;0.70;;;11.90;99.90;;;;;;5043921;28;20044;-79
2023/03/17 00:30:15;;;;;;;1.27;0.73;;;11.90;99.90;;;;;;5060134;28;20049;-79
2023/03/17 00:32:44;;;;;;;1.42;0.70;;;11.90;99.90;;;;;;5060299;28;20553;-79
2023/03/17 00:35:22;;;;;;;1.45;0.70;;;11.90;99.90;;;;;;5060953;28;20263;-79
2023/03/17 00:37:51;;;;;;;2.38;1.00;;;11.90;99.90;;;;;;5059213;28;20063;-79
2023/03/17 00:40:29;;;;;;;1.35;0.63;;;11.90;99.90;;;;;;5057265;28;20140;-79
2023/03/17 00:42:58;;;;;;;1.70;1.00;;;12.00;99.90;;;;;;5043588;28;20055;-79
2023/03/17 00:45:26;;;;;;;1.33;0.60;;;12.00;99.90;;;;;;5077659;28;20044;-79
2023/03/17 00:47:54;;;;;;;2.00;0.80;;;12.00;99.90;;;;;;5043582;28;20363;-79
2023/03/17 00:50:23;;;;;;;0.82;0.45;;;12.00;99.90;;;;;;5043238;28;20310;-79
2023/03/17 00:52:51;;;;;;;1.63;0.85;;;12.00;99.90;;;;;;5059018;28;20056;-79
2023/03/17 00:55:19;;;;;;;1.33;0.60;;;12.00;99.90;;;;;;5076294;28;20048;-79
2023/03/17 00:57:46;;;;;;;1.55;0.80;;;12.00;99.90;;;;;;5041059;28;20055;-79
2023/03/17 01:00:25;;;;;;;1.30;0.68;;;12.00;99.90;;;;;;5060625;28;20095;-79
2023/03/17 01:02:53;;;;;;;1.70;0.65;;;12.10;99.90;;;;;;5072294;28;20052;-79
2023/03/17 01:05:20;;;;;;;0.65;0.50;;;12.10;99.90;;;;;;5056319;28;20052;-79
2023/03/17 01:07:51;;;;;;;0.70;0.70;;;12.10;99.90;;;;;;5044600;28;20403;-80
2023/03/17 01:10:24;;;;;;;0.88;0.55;;;12.10;99.90;;;;;;5060866;28;20057;-79
2023/03/17 01:12:52;;;;;;;0.70;0.52;;;12.10;99.90;;;;;;5060417;28;20060;-79
2023/03/17 01:15:20;;;;;;;1.25;0.65;;;12.10;99.90;;;;;;5062744;28;20587;-79
2023/03/17 01:17:49;;;;;;;0.98;0.50;;;12.20;99.90;;;;;;5061065;28;20118;-79
2023/03/17 01:20:20;;;;;;;1.40;0.70;;;12.20;99.90;;;;;;5062699;28;20048;-79
2023/03/17 01:22:47;;;;;;;0.82;0.57;;;12.20;99.90;;;;;;5059961;28;20053;-79
2023/03/17 01:25:14;;;;;;;0.75;0.50;;;12.20;99.90;;;;;;5060112;28;20683;-79
2023/03/17 01:27:41;;;;;;;1.85;0.95;;;12.20;99.90;;;;;;5061158;28;20147;-79
2023/03/17 01:30:18;;;;;;;1.52;1.00;;;12.20;99.90;;;;;;5060838;28;20131;-79
2023/03/17 01:32:45;;;;;;;0.90;0.73;;;12.20;99.90;;;;;;5060688;28;20182;-79
2023/03/17 01:35:12;;;;;;;1.23;0.80;;;12.30;99.90;;;;;;5044244;28;20056;-79
2023/03/17 01:37:39;;;;;;;1.60;0.85;;;12.20;99.90;;;;;;5061108;28;20156;-79
2023/03/17 01:40:08;;;;;;;2.30;1.00;;;12.20;99.90;;;;;;5059796;28;20092;-79
2023/03/17 01:42:35;;;;;;;1.60;1.08;;;12.20;99.90;;;;;;5058222;28;20503;-79
2023/03/17 01:45:06;;;;;;;1.52;1.08;;;12.20;99.90;;;;;;5043214;28;20048;-79
2023/03/17 01:47:33;;;;;;;3.22;1.27;;;12.20;99.90;;;;;;5058328;28;21335;-79
2023/03/17 01:50:06;;;;;;;1.20;0.80;;;12.20;99.90;;;;;;5061351;28;20052;-79
2023/03/17 01:52:34;;;;;;;;;;;12.20;99.90;;;;;;5070182;28;20166;-79
2023/03/17 01:55:11;;;;;;;2.28;1.08;;;12.10;99.90;;;;;;5070652;28;20393;-79
2023/03/17 01:57:40;;;;;;;1.48;0.60;;;12.10;99.90;;;;;;5068251;28;20067;-79
2023/03/17 02:00:12;;;;;;;1.08;0.68;;;12.20;99.90;;;;;;5053292;28;20059;-79
2023/03/17 02:02:41;;;;;;;1.08;0.70;;;12.10;99.90;;;;;;5072539;28;20079;-79
2023/03/17 02:05:10;;;;;;;1.05;0.73;;;12.10;99.90;;;;;;5047874;28;20290;-79
2023/03/17 02:07:37;;;;;;;1.30;0.82;;;12.10;99.90;;;;;;5054984;28;20430;-79
2023/03/17 02:10:04;;;;;;;1.50;0.80;;;12.10;99.90;;;;;;5060419;28;20071;-79
2023/03/17 02:12:31;;;;;;;0.63;0.50;;;12.10;99.90;;;;;;5061107;28;20058;-79
2023/03/17 02:14:58;;;;;;;1.00;0.90;;;12.10;99.90;;;;;;5043862;28;20124;-79
2023/03/17 02:17:26;;;;;;;1.50;0.80;;;12.10;99.90;;;;;;5043961;28;20507;-79
2023/03/17 02:19:53;;;;;;;1.20;0.80;;;12.10;99.90;;;;;;5061653;28;20527;-79
2023/03/17 02:22:20;;;;;;;1.02;0.70;;;12.10;99.90;;;;;;5058540;28;20076;-79
2023/03/17 02:24:55;;;;;;;0.80;0.55;;;12.10;99.90;;;;;;5059378;28;20076;-79
2023/03/17 02:27:33;;;;;;;0.85;0.75;;;12.10;99.90;;;;;;5040395;28;20057;-79
2023/03/17 02:30:01;;;;;;;0.88;0.60;;;12.20;99.90;;;;;;5045304;28;20049;-79
2023/03/17 02:32:27;;;;;;;1.27;0.68;;;12.20;99.90;;;;;;4713056;28;9999707;-79
2023/03/17 02:34:54;;;;;;;0.93;0.70;;;12.20;99.90;;;;;;5044237;28;20400;-78
2023/03/17 02:37:22;;;;;;;1.58;0.85;;;12.20;99.90;;;;;;5063901;28;20570;-79
2023/03/17 02:39:49;;;;;;;1.80;0.73;;;12.20;99.90;;;;;;5064150;28;20553;-79
2023/03/17 02:42:16;;;;;;;1.48;0.73;;;12.20;99.90;;;;;;5063934;28;20087;-79
2023/03/17 02:44:43;;;;;;;0.80;0.77;;;12.20;99.90;;;;;;5075011;28;20055;-79
2023/03/17 02:47:11;;;;;;;0.85;0.50;;;12.20;99.90;;;;;;5078382;28;20131;-78
2023/03/17 02:49:38;;;;;;;2.83;1.35;;;12.20;99.90;;;;;;5081176;28;20048;-79
2023/03/17 02:52:06;;;;;;;0.82;0.50;;;12.20;99.90;;;;;;5061965;28;20100;-77
2023/03/17 02:54:32;;;;;;;1.52;0.88;;;12.20;99.90;;;;;;5061388;28;20067;-79
2023/03/17 02:56:59;;;;;;;0.80;0.68;;;12.20;99.90;;;;;;5028886;28;20086;-78
2023/03/17 02:59:26;;;;;;;0.80;0.63;;;12.20;99.90;;;;;;5063936;28;20133;-79
2023/03/17 03:01:54;;;;;;;0.77;0.60;;;12.20;99.90;;;;;;5063074;28;20059;-79
2023/03/17 03:04:23;;;;;;;0.70;0.60;;;12.20;99.90;;;;;;5061402;28;20559;-79
2023/03/17 03:06:49;;;;;;;0.57;0.50;;;12.20;99.90;;;;;;5061355;28;20045;-78
2023/03/17 03:09:16;;;;;;;0.50;0.50;;;12.20;99.90;;;;;;5044335;28;20068;-78
2023/03/17 03:11:43;;;;;;;0.55;0.50;;;12.20;99.90;;;;;;5064235;28;20407;-79
2023/03/17 03:14:10;;;;;;;1.15;0.57;;;12.20;99.90;;;;;;5062554;28;20052;-78
2023/03/17 03:16:37;;;;;;;0.70;0.50;;;12.20;99.90;;;;;;5064833;28;20211;-78
2023/03/17 03:19:04;;;;;;;1.20;0.85;;;12.20;99.90;;;;;;5063442;28;20135;-78
2023/03/17 03:21:31;;;;;;;1.20;0.40;;;12.20;99.90;;;;;;5079153;28;20055;-79
2023/03/17 03:23:58;;;;;;;1.08;0.70;;;12.20;99.90;;;;;;5079938;28;20052;-78
2023/03/17 03:26:24;;;;;;;0.40;0.40;;;12.20;99.90;;;;;;5062333;28;20080;-78
2023/03/17 03:28:52;;;;;;;0.75;0.55;;;12.20;99.90;;;;;;5047315;28;20051;-78
2023/03/17 03:31:19;;;;;;;1.58;0.63;;;12.20;99.90;;;;;;5063975;28;20049;-77
2023/03/17 03:33:46;;;;;;;1.00;0.55;;;12.20;99.90;;;;;;5046905;28;20111;-78
2023/03/17 03:36:13;;;;;;;0.73;0.57;;;12.20;99.90;;;;;;5078603;28;20057;-78
2023/03/17 03:38:40;;;;;;;1.10;0.70;;;12.20;99.90;;;;;;5062058;28;20110;-79
2023/03/17 03:41:07;;;;;;;0.60;0.60;;;12.20;99.90;;;;;;5078753;28;20091;-78
2023/03/17 03:43:35;;;;;;;1.45;1.00;;;12.20;99.90;;;;;;5063165;28;20098;-78
2023/03/17 03:46:03;;;;;;;1.88;0.80;;;12.20;99.90;;;;;;5062101;28;20056;-78
2023/03/17 03:48:30;;;;;;;1.67;0.90;;;12.30;99.90;;;;;;5062032;28;20098;-78
2023/03/17 03:50:57;;;;;;;0.45;0.40;;;12.30;99.90;;;;;;5062138;28;20055;-78
2023/03/17 03:53:24;;;;;;;0.63;0.60;;;12.30;99.90;;;;;;5060232;28;20084;-78
2023/03/17 03:55:51;;;;;;;0.63;0.50;;;12.30;99.90;;;;;;5061096;28;20493;-78
2023/03/17 03:58:18;;;;;;;0.57;0.57;;;12.30;99.90;;;;;;5062044;28;20099;-78
2023/03/17 04:00:45;;;;;;;1.20;0.80;;;12.30;99.90;;;;;;5061841;28;20440;-78
2023/03/17 04:03:13;;;;;;;1.13;0.70;;;12.30;99.90;;;;;;5057989;28;20071;-79
2023/03/17 04:05:39;;;;;;;0.60;0.60;;;12.30;99.90;;;;;;5043993;28;20155;-79
2023/03/17 04:08:06;;;;;;;1.35;0.90;;;12.30;99.90;;;;;;5026942;28;20083;-78
2023/03/17 04:10:33;;;;;;;1.60;0.98;;;12.30;99.90;;;;;;5042133;28;20098;-79
2023/03/17 04:13:00;;;;;;;0.70;0.70;;;12.30;99.90;;;;;;5061835;28;20127;-78
2023/03/17 04:15:28;;;;;;;1.20;0.52;;;12.20;99.90;;;;;;5061764;28;20059;-78
2023/03/17 04:17:55;;;;;;;1.20;0.80;;;12.30;99.90;;;;;;5061059;28;20068;-78
2023/03/17 04:20:22;;;;;;;1.42;0.82;;;12.30;99.90;;;;;;5078017;28;20231;-79
2023/03/17 04:22:48;;;;;;;0.90;0.70;;;12.30;99.90;;;;;;5061599;28;20064;-79
2023/03/17 04:25:15;;;;;;;0.90;0.60;;;12.30;99.90;;;;;;5026354;28;20629;-78
2023/03/17 04:27:42;;;;;;;0.82;0.60;;;12.20;99.90;;;;;;5048313;28;20155;-79
2023/03/17 04:30:12;;;;;;;1.52;0.80;;;12.20;99.90;;;;;;5050369;28;20070;-78
2023/03/17 04:32:39;;;;;;;1.30;0.60;;;12.20;99.90;;;;;;5065671;28;20585;-78
2023/03/17 04:35:08;;;;;;;0.75;0.52;;;12.20;99.90;;;;;;5047645;28;20040;-78
2023/03/17 04:37:35;;;;;;;1.63;1.02;;;12.20;99.90;;;;;;5064632;28;20056;-78
2023/03/17 04:40:01;;;;;;;0.70;0.65;;;12.20;99.90;;;;;;5067102;28;20044;-79
2023/03/17 04:42:28;;;;;;;1.08;0.88;;;12.10;99.90;;;;;;5067017;28;20084;-78
2023/03/17 04:44:55;;;;;;;1.65;0.80;;;12.10;99.90;;;;;;5049108;28;20110;-78
2023/03/17 04:47:22;;;;;;;0.57;0.57;;;12.10;99.90;;;;;;5065654;28;20133;-79
2023/03/17 04:49:48;;;;;;;1.77;0.80;;;12.10;99.90;;;;;;5047684;28;20472;-78
2023/03/17 04:52:15;;;;;;;0.90;0.80;;;12.10;99.90;;;;;;5064169;28;20048;-78
2023/03/17 04:54:42;;;;;;;1.02;0.57;;;12.10;99.90;;;;;;5064202;28;20575;-81
2023/03/17 04:57:11;;;;;;;1.02;0.70;;;12.00;99.90;;;;;;5063425;28;20059;-79
2023/03/17 04:59:38;;;;;;;0.88;0.65;;;11.90;99.90;;;;;;5064772;28;20163;-78
2023/03/17 05:02:06;;;;;;;0.57;0.57;;;11.90;99.90;;;;;;5064631;28;20127;-78
2023/03/17 05:04:33;;;;;;;0.50;0.50;;;11.80;99.90;;;;;;5065937;28;20059;-78
2023/03/17 05:07:00;;;;;;;1.08;0.82;;;11.80;99.90;;;;;;5030977;28;20041;-79
2023/03/17 05:09:27;;;;;;;0.75;0.60;;;11.80;99.90;;;;;;5045730;28;20048;-79
2023/03/17 05:11:54;;;;;;;0.68;0.60;;;11.70;99.90;;;;;;5065644;28;20139;-79
2023/03/17 05:14:21;;;;;;;0.55;0.55;;;11.70;99.90;;;;;;5066076;28;20669;-79
2023/03/17 05:16:48;;;;;;;1.33;0.73;;;11.70;99.90;;;;;;5065895;28;20048;-78
2023/03/17 05:19:15;;;;;;;1.50;0.90;;;11.60;99.90;;;;;;5049302;28;20060;-79
2023/03/17 05:21:42;;;;;;;0.82;0.60;;;11.60;99.90;;;;;;5081417;28;20055;-78
2023/03/17 05:24:09;;;;;;;0.60;0.60;;;11.60;99.90;;;;;;5065220;28;20132;-78
2023/03/17 05:26:36;;;;;;;1.30;0.80;;;11.60;99.90;;;;;;5081691;28;20044;-78
2023/03/17 05:29:02;;;;;;;1.08;0.75;;;11.50;99.90;;;;;;5062694;28;20096;-78
2023/03/17 05:31:30;;;;;;;1.17;0.70;;;11.60;99.90;;;;;;5066586;28;20040;-78
2023/03/17 05:33:57;;;;;;;1.73;1.08;;;11.50;99.90;;;;;;5064387;28;20513;-78
2023/03/17 05:36:24;;;;;;;0.95;0.80;;;11.50;99.90;;;;;;5071862;28;20617;-78
2023/03/17 05:38:51;;;;;;;0.90;0.77;;;11.50;99.90;;;;;;5056182;28;20048;-79
2023/03/17 05:41:18;;;;;;;1.35;1.00;;;11.50;99.90;;;;;;5081401;28;20048;-79
2023/03/17 05:43:45;;;;;;;1.02;0.77;;;11.60;99.90;;;;;;5082004;28;20053;-79
2023/03/17 05:46:12;;;;;;;1.42;1.23;;;11.60;99.90;;;;;;5064847;28;20600;-79
2023/03/17 05:48:40;;;;;;;1.95;1.38;;;11.60;99.90;;;;;;5065475;28;20507;-78
2023/03/17 05:51:07;;;;;;;1.48;1.15;;;11.60;99.90;;;;;;5062751;28;20041;-78
2023/03/17 05:53:35;;;;;;;1.52;1.23;;;11.60;99.90;;;;;;5065147;28;20355;-79
2023/03/17 05:56:02;;;;;;;1.55;1.20;;;11.60;99.90;;;;;;5084746;28;20521;-78
2023/03/17 05:58:28;;;;;;;1.73;1.30;;;11.60;99.90;;;;;;5059620;28;20143;-78
2023/03/17 06:00:55;;;;;;;1.50;1.10;;;11.60;99.90;;;;;;5081229;28;20089;-79
2023/03/17 06:03:22;;;;;;;1.35;1.10;;;11.60;99.90;;;;;;5063300;28;20047;-80
2023/03/17 06:05:50;;;;;;;1.75;1.20;;;11.60;99.90;;;;;;5060456;28;20117;-79
2023/03/17 06:08:17;;;;;;;2.13;1.60;;;11.60;99.90;;;;;;5043082;28;20071;-79
2023/03/17 06:10:44;;;;;;;1.58;1.15;;;11.60;99.90;;;;;;5077136;28;20044;-78
2023/03/17 06:13:10;;;;;;;1.52;1.17;;;11.60;99.90;;;;;;5062497;28;20144;-78
2023/03/17 06:15:37;;;;;;;1.25;1.02;;;11.60;99.90;;;;;;5044162;28;20048;-79
2023/03/17 06:18:04;;;;;;;1.80;1.40;;;11.60;99.90;;;;;;5074162;28;20055;-78
2023/03/17 06:20:32;;;;;;;2.00;1.60;;;11.60;99.90;;;;;;5062429;28;20154;-79
2023/03/17 06:22:59;;;;;;;1.58;1.17;;;11.60;99.90;;;;;;5057433;28;20052;-78
2023/03/17 06:25:32;;;;;;;1.30;1.20;;;11.60;99.90;;;;;;5042822;28;20075;-79
2023/03/17 06:28:01;;;;;;;1.80;1.40;;;11.70;99.90;;;;;;5059616;28;20620;-79
2023/03/17 06:30:29;;;;;;;1.30;1.10;;;11.70;99.90;;;;;;5077465;28;20051;-78
2023/03/17 06:32:56;;;;;;;1.42;1.15;;;11.70;99.90;;;;;;5080482;28;20048;-79
2023/03/17 06:35:24;;;;;;;1.50;1.23;;;11.60;99.90;;;;;;5079631;28;20151;-79
2023/03/17 06:37:50;;;;;;;1.70;1.15;;;11.60;99.90;;;;;;5052726;28;20137;-79
2023/03/17 06:40:17;;;;;;;1.73;1.15;;;11.70;99.90;;;;;;5057253;28;20111;-79
2023/03/17 06:42:44;;;;;;;2.03;1.20;;;11.70;99.90;;;;;;5069713;28;20653;-80
2023/03/17 06:45:11;;;;;;;1.70;1.40;;;11.70;99.90;;;;;;5076726;28;20048;-79
2023/03/17 06:47:38;;;;;;;1.85;1.25;;;11.60;99.90;;;;;;5059311;28;20064;-80
2023/03/17 06:50:08;;;;;;;1.48;0.90;;;11.60;99.90;;;;;;5057943;28;20054;-77
2023/03/17 06:52:35;;;;;;;1.73;1.17;;;11.60;99.90;;;;;;5045322;28;20055;-79
2023/03/17 06:55:03;;;;;;;1.77;1.00;;;11.60;99.90;;;;;;5075772;28;20056;-80
2023/03/17 06:57:30;;;;;;;1.30;1.08;;;11.70;99.90;;;;;;5058892;28;20071;-78
2023/03/17 06:59:57;;;;;;;1.70;1.20;;;11.70;99.90;;;;;;5071842;28;20131;-80
2023/03/17 07:02:24;;;;;;;2.60;1.48;;;11.70;99.90;;;;;;5073852;28;20649;-79
2023/03/17 07:04:51;;;;;;;1.60;1.40;;;11.60;99.90;;;;;;5073649;28;20466;-79
2023/03/17 07:07:19;;;;;;;2.38;1.30;;;11.60;99.90;;;;;;5042227;28;20406;-79
2023/03/17 07:09:46;;;;;;;1.63;1.23;;;11.60;99.90;;;;;;5056964;28;20388;-79
2023/03/17 07:12:14;;;;;;;2.30;1.42;;;11.60;99.90;;;;;;5075430;28;20060;-79
2023/03/17 07:14:41;;;;;;;1.48;1.08;;;11.60;99.90;;;;;;5059632;28;20087;-79
2023/03/17 07:17:12;;;;;;;1.80;1.30;;;11.60;99.90;;;;;;5058170;28;20104;-79
2023/03/17 07:19:39;;;;;;;1.52;1.23;;;11.60;99.90;;;;;;5058947;28;20158;-79
2023/03/17 07:22:06;;;;;;;1.65;1.13;;;11.70;99.90;;;;;;5075783;28;20078;-79
2023/03/17 07:24:33;;;;;;;1.30;1.20;;;11.70;99.90;;;;;;5076316;28;20146;-79
2023/03/17 07:27:00;;;;;;;1.15;1.05;;;11.70;99.90;;;;;;5042311;28;20131;-79
2023/03/17 07:29:28;;;;;;;1.25;0.95;;;11.80;99.90;;;;;;5077546;28;20475;-79
2023/03/17 07:31:55;;;;;;;1.35;1.00;;;11.80;99.90;;;;;;5057986;28;20468;-79
2023/03/17 07:34:22;;;;;;;1.33;1.02;;;11.90;99.90;;;;;;5077933;28;20123;-79
2023/03/17 07:36:48;;;;;;;1.45;0.98;;;11.90;99.90;;;;;;5072933;28;20358;-80
2023/03/17 07:39:15;;;;;;;2.00;1.50;;;11.90;99.90;;;;;;5076418;28;20083;-80
2023/03/17 07:41:43;;;;;;;1.63;1.27;;;11.90;99.90;;;;;;5059072;28;20156;-80
2023/03/17 07:44:10;;;;;;;2.10;1.10;;;11.90;99.90;;;;;;5077129;28;20101;-80
2023/03/17 07:46:37;;;;;;;1.65;1.13;;;11.90;99.90;;;;;;5058496;28;20046;-80
2023/03/17 07:49:04;;;;;;;2.33;1.30;;;11.90;99.90;;;;;;5072876;28;20336;-81
2023/03/17 07:51:32;;;;;;;1.50;1.00;;;12.00;99.90;;;;;;5073425;28;20048;-80
2023/03/17 07:54:02;;;;;;;2.33;1.40;;;11.90;99.90;;;;;;5065784;28;20471;-80
2023/03/17 07:56:30;;;;;;;1.52;1.13;;;11.90;99.90;;;;;;5071098;28;20827;-80
2023/03/17 07:58:57;;;;;;;1.42;0.95;;;11.90;99.90;;;;;;5060777;28;20064;-80
2023/03/17 08:01:25;;;;;;;1.40;1.00;;;12.00;99.90;;;;;;5041795;28;20052;-79
2023/03/17 08:03:52;;;;;;;1.42;1.10;;;12.00;99.90;;;;;;5034184;28;20055;-80
2023/03/17 08:06:20;;;;;;;1.88;1.58;;;11.90;99.90;;;;;;5062612;28;20281;-80
2023/03/17 08:08:47;;;;;;;2.40;1.70;;;11.90;99.90;;;;;;5068926;28;20050;-81
2023/03/17 08:11:14;;;;;;;2.03;1.50;;;11.90;99.90;;;;;;5055003;28;20060;-81
2023/03/17 08:13:41;;;;;;;1.85;1.48;;;11.80;99.90;;;;;;5074846;28;20361;-81
2023/03/17 08:16:08;;;;;;;1.98;1.25;;;11.90;99.90;;;;;;5039116;28;20396;-81
2023/03/17 08:18:36;;;;;;;2.15;1.58;;;11.90;99.90;;;;;;5041162;28;20044;-81
2023/03/17 08:21:04;;;;;;;2.40;1.77;;;11.90;99.90;;;;;;5055293;28;20112;-81
2023/03/17 08:23:31;;;;;;;2.00;1.48;;;11.90;99.90;;;;;;5036959;28;20067;-80
2023/03/17 08:25:59;;;;;;;2.28;1.55;;;11.90;99.90;;;;;;5073173;28;20487;-81
2023/03/17 08:28:25;;;;;;;2.25;1.60;;;11.90;99.90;;;;;;5040167;28;20135;-81
2023/03/17 08:30:53;;;;;;;2.25;1.55;;;12.00;99.90;;;;;;5075526;28;20253;-79
2023/03/17 08:33:20;;;;;;;1.92;1.33;;;12.00;99.90;;;;;;5072530;28;20129;-82
2023/03/17 08:35:47;;;;;;;1.58;1.15;;;12.10;99.90;;;;;;5063631;28;21099;-80
2023/03/17 08:38:14;;;;;;;1.58;1.02;;;12.20;99.90;;;;;;5071282;28;20138;-79
2023/03/17 08:40:41;;;;;;;1.60;1.15;;;12.30;99.90;;;;;;5069974;28;20052;-80
2023/03/17 08:43:08;;;;;;;1.25;0.90;;;12.40;99.90;;;;;;5058252;28;20503;-81
2023/03/17 08:45:35;;;;;;;1.00;0.70;;;12.40;99.90;;;;;;5038948;28;20057;-81
2023/03/17 08:48:02;;;;;;;0.75;0.63;;;12.50;99.90;;;;;;5076061;28;20055;-81
2023/03/17 08:50:29;;;;;;;1.23;0.80;;;12.50;99.90;;;;;;5081753;28;20128;-81
2023/03/17 08:52:56;;;;;;;0.85;0.70;;;12.50;99.90;;;;;;5073345;28;20068;-81
2023/03/17 08:55:23;;;;;;;0.47;0.47;;;12.40;99.90;;;;;;5054302;28;20051;-81
2023/03/17 08:57:51;;;;;;;1.30;0.90;;;12.40;99.90;;;;;;5058273;28;20136;-81
2023/03/17 09:00:19;;;;;;;1.27;0.82;;;12.40;99.90;;;;;;5041274;28;20059;-81
2023/03/17 09:02:46;;;;;;;1.35;0.85;;;12.40;99.90;;;;;;5075765;28;20059;-80
2023/03/17 09:05:13;;;;;;;0.52;0.40;;;12.30;99.90;;;;;;5073393;28;20082;-80
2023/03/17 09:07:40;;;;;;;0.93;0.60;;;12.30;99.90;;;;;;5056743;28;20550;-80
2023/03/17 09:10:09;;;;;;;0.60;0.60;;;12.30;99.90;;;;;;5054449;28;20060;-80
2023/03/17 09:12:36;;;;;;;1.10;0.60;;;12.30;99.90;;;;;;5058769;28;20051;-82
2023/03/17 09:15:04;;;;;;;0.80;0.70;;;12.30;99.90;;;;;;5042420;28;20739;-79
2023/03/17 09:17:32;;;;;;;0.85;0.60;;;12.30;99.90;;;;;;5079199;28;20102;-78
2023/03/17 09:19:58;;;;;;;0.82;0.80;;;12.40;99.90;;;;;;5060889;28;20075;-77
2023/03/17 09:22:25;;;;;;;0.70;0.55;;;12.40;99.90;;;;;;5078409;28;20125;-78
2023/03/17 09:24:52;;;;;;;1.02;0.73;;;12.40;99.90;;;;;;5079795;28;20052;-78
2023/03/17 09:27:19;;;;;;;0.80;0.68;;;12.40;99.90;;;;;;5079875;28;20048;-78
2023/03/17 09:29:46;;;;;;;0.80;0.63;;;12.50;99.90;;;;;;5062013;28;20163;-78
2023/03/17 09:32:14;;;;;;;0.57;0.52;;;12.50;99.90;;;;;;5059878;28;20440;-77
2023/03/17 09:34:40;;;;;;;0.80;0.55;;;12.50;99.90;;;;;;5077540;28;20044;-77
2023/03/17 09:37:08;;;;;;;0.60;0.60;;;12.60;99.90;;;;;;5056910;28;20070;-78
2023/03/17 09:39:35;;;;;;;0.75;0.50;;;12.60;99.90;;;;;;5071580;28;20052;-78
2023/03/17 09:42:46;;;;;;;0.68;0.50;;;12.70;99.90;;;;;;5061687;28;20368;-77
2023/03/17 09:45:41;;;;;;;1.00;0.60;;;12.70;99.90;;;;;;5049920;28;20052;-78
2023/03/17 09:48:31;;;;;;;0.40;0.40;;;12.70;99.90;;;;;;5063479;28;20052;-77
2023/03/17 09:51:03;;;;;;;0.20;0.20;;;12.70;99.90;;;;;;5069730;28;20553;-78
2023/03/17 09:54:10;;;;;;;0.30;0.30;;;12.80;99.90;;;;;;5077010;28;20075;-77
2023/03/17 09:56:38;;;;;;;0.50;0.50;;;12.80;99.90;;;;;;4960824;28;20072;-78
2023/03/17 09:59:22;;;;;;;0.30;0.30;;;13.00;99.90;;;;;;5015365;28;20051;-78
2023/03/17 10:01:49;;;;;;;1.27;0.40;;;13.10;99.90;;;;;;5061478;28;20223;-78
2023/03/17 10:04:16;;;;;;;0.30;0.30;;;13.40;99.90;;;;;;5077951;28;20445;-78
2023/03/17 10:06:45;;;;;;;0.38;0.35;;;13.60;99.90;;;;;;5043633;28;20048;-78
2023/03/17 10:09:28;;;;;;;0.47;0.30;;;13.70;99.90;;;;;;5052769;28;20056;-77
2023/03/17 10:12:22;;;;;;;0.40;0.20;;;13.80;99.90;;;;;;5056484;28;20420;-78
2023/03/17 10:15:00;;;;;;;0.30;0.30;;;13.80;99.90;;;;;;5069884;28;20053;-77
2023/03/17 10:17:35;;;;;;;0.30;0.30;;;13.70;99.90;;;;;;5054773;28;20245;-77
2023/03/17 10:20:13;;;;;;;0.40;0.30;;;13.50;99.90;;;;;;5046420;28;20136;-86
2023/03/17 10:22:44;;;;;;;0.10;0.10;;;13.40;99.90;;;;;;5037950;28;20055;-78
2023/03/17 10:25:21;;;;;;;0.30;0.30;;;13.40;99.90;;;;;;5053829;28;20048;-78
2023/03/17 10:28:07;;;;;;;0.20;0.20;;;13.50;99.90;;;;;;5078977;28;20554;-77
2023/03/17 10:30:35;;;;;;;0.50;0.30;;;13.50;99.90;;;;;;5079260;28;20066;-77
2023/03/17 10:33:03;;;;;;;0.47;0.40;;;13.50;99.90;;;;;;5068346;28;20405;-77
2023/03/17 10:35:34;;;;;;;0.30;0.30;;;13.40;99.90;;;;;;5079305;28;20056;-77
2023/03/17 10:38:15;;;;;;;0.30;0.30;;;13.40;99.90;;;;;;5078350;28;20483;-77
2023/03/17 10:40:46;;;;;;;0.28;0.28;;;13.50;99.90;;;;;;5036637;28;20075;-77
2023/03/17 10:43:17;;;;;;;0.40;0.40;;;13.50;99.90;;;;;;5068960;28;20060;-77
2023/03/17 10:46:04;;;;;;;0.73;0.30;;;13.50;99.90;;;;;;5077386;28;20088;-78
2023/03/17 10:48:35;;;;;;;0.50;0.35;;;13.40;99.90;;;;;;5060061;28;20131;-77
2023/03/17 10:51:08;;;;;;;0.30;0.30;;;13.50;99.90;;;;;;5044790;28;20075;-78
2023/03/17 10:53:42;;;;;;;0.60;0.30;;;13.50;99.90;;;;;;5059446;28;20149;-78
2023/03/17 10:56:19;;;;;;;0.35;0.35;;;13.50;99.90;;;;;;5076767;28;20046;-78
2023/03/17 10:58:47;;;;;;;0.60;0.45;;;13.40;99.90;;;;;;5044811;28;20226;-78
2023/03/17 11:01:21;;;;;;;0.60;0.43;;;13.40;99.90;;;;;;5079158;28;20067;-77
2023/03/17 11:03:48;;;;;;;0.95;0.40;;;13.40;99.90;;;;;;5052309;28;20200;-77
2023/03/17 11:06:17;;;;;;;0.68;0.60;;;13.30;99.90;;;;;;5047368;28;20052;-77
2023/03/17 11:08:53;;;;;;;0.65;0.60;;;13.30;99.90;;;;;;5057992;28;20732;-77
2023/03/17 11:11:25;;;;;;;0.88;0.50;;;13.30;99.90;;;;;;5067825;28;20059;-77
2023/03/17 11:14:02;;;;;;;0.80;0.57;;;13.40;99.90;;;;;;5056282;28;20464;-78
2023/03/17 11:16:36;;;;;;;1.48;0.60;;;13.40;99.90;;;;;;5077659;28;20066;-77
2023/03/17 11:19:03;;;;;;;1.15;0.60;;;13.30;99.90;;;;;;5044074;28;20075;-77
2023/03/17 11:21:31;;;;;;;0.52;0.40;;;13.30;99.90;;;;;;5077294;28;20048;-77
2023/03/17 11:24:01;;;;;;;0.77;0.50;;;13.40;99.90;;;;;;5044761;28;20097;-77
2023/03/17 11:26:41;;;;;;;0.70;0.47;;;13.40;99.90;;;;;;5059549;28;20064;-78
2023/03/17 11:29:18;;;;;;;1.00;0.50;;;13.50;99.90;;;;;;5076965;28;20076;-77
2023/03/17 11:31:48;;;;;;;1.10;0.50;;;13.60;99.90;;;;;;5077989;28;20500;-77
2023/03/17 11:34:37;;;;;;;0.35;0.32;;;13.60;99.90;;;;;;5060133;28;20066;-77
2023/03/17 11:37:40;;;;;;;0.50;0.43;;;13.50;99.90;;;;;;5042551;28;20048;-77
2023/03/17 11:40:30;;;;;;;0.47;0.43;;;13.50;99.90;;;;;;5050390;28;20096;-77
2023/03/17 11:43:20;;;;;;;0.63;0.50;;;13.40;99.90;;;;;;5059667;28;20475;-77
2023/03/17 11:45:51;;;;;;;0.20;0.20;;;13.40;99.90;;;;;;5026624;28;20056;-78
2023/03/17 11:48:42;;;;;;;1.27;0.73;;;13.40;99.90;;;;;;5077450;28;20048;-78
2023/03/17 11:51:30;;;;;;;0.35;0.35;;;13.40;99.90;;;;;;5065526;28;20058;-77
2023/03/17 11:54:08;;;;;;;1.13;0.60;;;13.30;99.90;;;;;;5070033;28;20427;-77
2023/03/17 11:56:45;;;;;;;0.75;0.55;;;13.30;99.90;;;;;;5053839;28;20076;-78
2023/03/17 11:59:37;;;;;;;1.20;0.88;;;13.30;99.90;;;;;;5059111;28;20480;-77
2023/03/17 12:02:22;;;;;;;1.05;0.70;;;13.20;99.90;;;;;;5053040;28;20120;-77
2023/03/17 12:04:54;;;;;;;0.52;0.52;;;13.10;99.90;;;;;;5065480;28;20091;-78
2023/03/17 12:07:22;;;;;;;1.33;0.77;;;13.20;99.90;;;;;;5058008;28;20503;-78
2023/03/17 12:10:20;;;;;;;0.80;0.60;;;13.20;99.90;;;;;;5058887;28;20147;-77
2023/03/17 12:12:55;;;;;;;0.63;0.52;;;13.20;99.90;;;;;;5077680;28;20501;-78
2023/03/17 12:15:31;;;;;;;1.25;0.57;;;13.30;99.90;;;;;;5043870;28;20414;-77
2023/03/17 12:18:08;;;;;;;1.02;0.60;;;13.30;99.90;;;;;;5042919;28;20044;-77
2023/03/17 12:20:54;;;;;;;0.55;0.40;;;13.30;99.90;;;;;;5077694;28;20829;-76
2023/03/17 12:23:46;;;;;;;0.73;0.65;;;13.30;99.90;;;;;;5038584;28;20283;-76
2023/03/17 12:26:36;;;;;;;1.20;1.10;;;13.30;99.90;;;;;;5061724;28;20056;-77
2023/03/17 12:29:15;;;;;;;0.93;0.82;;;13.30;99.90;;;;;;5044718;28;20292;-77
2023/03/17 12:31:51;;;;;;;1.08;0.93;;;13.30;99.90;;;;;;5060043;28;20058;-76
2023/03/17 12:34:31;;;;;;;0.93;0.70;;;13.30;99.90;;;;;;5043194;28;20125;-77
2023/03/17 12:36:58;;;;;;;2.97;0.70;;;13.30;99.90;;;;;;5043450;28;20044;-77
2023/03/17 12:39:32;;;;;;;0.80;0.63;;;13.20;99.90;;;;;;5042532;28;20084;-77
2023/03/17 12:42:08;;;;;;;2.20;1.05;;;13.20;99.90;;;;;;5042764;28;20113;-77
2023/03/17 12:44:43;;;;;;;0.80;0.70;;;13.10;99.90;;;;;;5076107;28;20044;-77
2023/03/17 12:47:35;;;;;;;1.23;0.70;;;13.10;99.90;;;;;;5029390;28;20074;-77
2023/03/17 12:50:04;;;;;;;0.95;0.80;;;13.20;99.90;;;;;;5083247;28;20048;-77
2023/03/17 12:52:52;;;;;;;0.50;0.50;;;13.20;99.90;;;;;;5063566;28;20059;-77
2023/03/17 12:55:22;;;;;;;0.80;0.80;;;13.20;99.90;;;;;;5058952;28;20512;-76
2023/03/17 12:58:16;;;;;;;1.17;0.70;;;13.10;99.90;;;;;;5046440;28;20091;-77
2023/03/17 13:01:07;;;;;;;0.50;0.50;;;13.10;99.90;;;;;;5072643;28;20048;-77
2023/03/17 13:03:41;;;;;;;0.73;0.50;;;13.20;99.90;;;;;;5026190;28;20052;-77